VOML/IXE METAR and TAF weather

Enter ICAO airport designator
Station Type Date Time Source
VOML METAR 2019/08/17 11:00 UTC NOAA

VOML 171100Z 25005KT 6000 SCT012 FEW025CB BKN080 27/24 Q1007 NOSIG


Station Type Date Time Source
VOML Decoded METAR 2019/08/17 11:00 UTC NOAA

Station name not available
Aug 17, 2019 - 07:00 AM EDT / 2019.08.17 1100 UTC
Wind: from the WSW (250 degrees) at 6 MPH (5 KT):0
Visibility: 3 mile(s):0
Sky conditions: mostly cloudy
Weather: Cumulonimbus clouds observed
Temperature: 80 F (27 C)
Dew Point: 75 F (24 C)
Relative Humidity: 83%
Pressure (altimeter): 29.74 in. Hg (1007 hPa)
ob: VOML 171100Z 25005KT 6000 SCT012 FEW025CB BKN080 27/24 Q1007 NOSIG
cycle: 11

Station Type Date Time Source
VOML TAF 2019/08/17 12:00 UTC NOAA

TAF VOML 171100Z 1712/1818 27010KT 6000 FEW008 SCT012 BK

Example: see airport list